sensor_id;sensor_type;location;lat;lon;timestamp;temperature;humidity
45383;DHT22;42455;51.660;5.824;2023-06-05T00:01:43;16.1;71.0
45383;DHT22;42455;51.660;5.824;2023-06-05T00:06:49;16.0;71.5
45383;DHT22;42455;51.660;5.824;2023-06-05T00:11:55;15.9;72.0
45383;DHT22;42455;51.660;5.824;2023-06-05T00:17:01;15.8;72.0
45383;DHT22;42455;51.660;5.824;2023-06-05T00:22:08;15.7;72.5
45383;DHT22;42455;51.660;5.824;2023-06-05T00:27:14;15.7;72.5
45383;DHT22;42455;51.660;5.824;2023-06-05T00:32:20;15.6;72.5
45383;DHT22;42455;51.660;5.824;2023-06-05T00:37:26;15.5;73.0
45383;DHT22;42455;51.660;5.824;2023-06-05T00:42:33;15.4;73.5
45383;DHT22;42455;51.660;5.824;2023-06-05T00:47:39;15.3;74.0
45383;DHT22;42455;51.660;5.824;2023-06-05T00:52:46;15.2;74.0
45383;DHT22;42455;51.660;5.824;2023-06-05T00:57:51;15.2;74.5
45383;DHT22;42455;51.660;5.824;2023-06-05T01:02:57;15.1;74.5
45383;DHT22;42455;51.660;5.824;2023-06-05T01:08:04;15.0;75.0
45383;DHT22;42455;51.660;5.824;2023-06-05T01:13:21;15.0;75.0
45383;DHT22;42455;51.660;5.824;2023-06-05T01:18:16;14.9;75.0
45383;DHT22;42455;51.660;5.824;2023-06-05T01:23:22;14.8;75.5
45383;DHT22;42455;51.660;5.824;2023-06-05T01:28:29;14.8;75.5
45383;DHT22;42455;51.660;5.824;2023-06-05T01:33:40;14.7;76.0
45383;DHT22;42455;51.660;5.824;2023-06-05T01:38:42;14.6;76.5
45383;DHT22;42455;51.660;5.824;2023-06-05T01:43:47;14.6;76.5
45383;DHT22;42455;51.660;5.824;2023-06-05T01:48:53;14.5;76.5
45383;DHT22;42455;51.660;5.824;2023-06-05T01:53:59;14.5;77.0
45383;DHT22;42455;51.660;5.824;2023-06-05T01:59:06;14.4;77.0
45383;DHT22;42455;51.660;5.824;2023-06-05T02:04:12;14.4;77.5
45383;DHT22;42455;51.660;5.824;2023-06-05T02:09:18;14.3;77.5
45383;DHT22;42455;51.660;5.824;2023-06-05T02:14:24;14.3;78.0
45383;DHT22;42455;51.660;5.824;2023-06-05T02:19:31;14.2;78.0
45383;DHT22;42455;51.660;5.824;2023-06-05T02:24:37;14.2;78.0
45383;DHT22;42455;51.660;5.824;2023-06-05T02:29:43;14.1;78.5
45383;DHT22;42455;51.660;5.824;2023-06-05T02:34:49;14.1;78.5
45383;DHT22;42455;51.660;5.824;2023-06-05T02:39:55;14.0;78.5
45383;DHT22;42455;51.660;5.824;2023-06-05T02:45:02;14.0;78.5
45383;DHT22;42455;51.660;5.824;2023-06-05T02:50:08;13.9;78.5
45383;DHT22;42455;51.660;5.824;2023-06-05T02:55:14;13.9;79.0
45383;DHT22;42455;51.660;5.824;2023-06-05T03:00:20;13.8;79.5
45383;DHT22;42455;51.660;5.824;2023-06-05T03:05:26;13.7;79.5
45383;DHT22;42455;51.660;5.824;2023-06-05T03:10:33;13.7;79.5
45383;DHT22;42455;51.660;5.824;2023-06-05T03:15:39;13.7;80.0
45383;DHT22;42455;51.660;5.824;2023-06-05T03:20:45;13.6;80.0
45383;DHT22;42455;51.660;5.824;2023-06-05T03:25:51;13.6;80.5
45383;DHT22;42455;51.660;5.824;2023-06-05T03:30:58;13.5;80.5
45383;DHT22;42455;51.660;5.824;2023-06-05T03:36:04;13.5;80.5
45383;DHT22;42455;51.660;5.824;2023-06-05T03:41:10;13.4;80.5
45383;DHT22;42455;51.660;5.824;2023-06-05T03:46:16;13.4;81.0
45383;DHT22;42455;51.660;5.824;2023-06-05T03:51:22;13.4;81.0
45383;DHT22;42455;51.660;5.824;2023-06-05T03:56:29;13.4;81.0
45383;DHT22;42455;51.660;5.824;2023-06-05T04:01:35;13.3;81.5
45383;DHT22;42455;51.660;5.824;2023-06-05T04:06:41;13.3;81.5
45383;DHT22;42455;51.660;5.824;2023-06-05T04:11:47;13.3;81.5
45383;DHT22;42455;51.660;5.824;2023-06-05T04:16:53;13.3;82.0
45383;DHT22;42455;51.660;5.824;2023-06-05T04:22:00;13.3;82.0
45383;DHT22;42455;51.660;5.824;2023-06-05T04:27:06;13.3;82.0
45383;DHT22;42455;51.660;5.824;2023-06-05T04:32:13;13.3;82.0
45383;DHT22;42455;51.660;5.824;2023-06-05T04:37:18;13.4;82.5
45383;DHT22;42455;51.660;5.824;2023-06-05T04:42:25;13.4;82.5
45383;DHT22;42455;51.660;5.824;2023-06-05T04:47:31;13.4;83.0
45383;DHT22;42455;51.660;5.824;2023-06-05T04:52:37;13.5;83.0
45383;DHT22;42455;51.660;5.824;2023-06-05T04:57:43;13.5;83.5
45383;DHT22;42455;51.660;5.824;2023-06-05T05:02:49;13.7;83.5
45383;DHT22;42455;51.660;5.824;2023-06-05T05:07:56;13.8;83.5
45383;DHT22;42455;51.660;5.824;2023-06-05T05:13:02;13.9;83.5
45383;DHT22;42455;51.660;5.824;2023-06-05T05:18:07;14.0;83.0
45383;DHT22;42455;51.660;5.824;2023-06-05T05:23:13;14.1;83.0
45383;DHT22;42455;51.660;5.824;2023-06-05T05:28:19;14.2;83.0
45383;DHT22;42455;51.660;5.824;2023-06-05T05:33:26;14.3;83.0
45383;DHT22;42455;51.660;5.824;2023-06-05T05:38:32;14.4;83.0
45383;DHT22;42455;51.660;5.824;2023-06-05T05:43:38;14.5;83.0
45383;DHT22;42455;51.660;5.824;2023-06-05T05:48:44;14.6;82.5
45383;DHT22;42455;51.660;5.824;2023-06-05T05:53:51;14.7;82.5
45383;DHT22;42455;51.660;5.824;2023-06-05T05:58:57;14.8;82.5
45383;DHT22;42455;51.660;5.824;2023-06-05T06:04:03;15.0;82.0
45383;DHT22;42455;51.660;5.824;2023-06-05T06:09:09;15.1;82.0
45383;DHT22;42455;51.660;5.824;2023-06-05T06:14:15;15.2;81.5
45383;DHT22;42455;51.660;5.824;2023-06-05T06:19:22;15.4;81.5
45383;DHT22;42455;51.660;5.824;2023-06-05T06:24:28;15.6;81.5
45383;DHT22;42455;51.660;5.824;2023-06-05T06:29:34;15.8;81.0
45383;DHT22;42455;51.660;5.824;2023-06-05T06:34:40;16.0;80.5
45383;DHT22;42455;51.660;5.824;2023-06-05T06:39:46;16.2;80.5
45383;DHT22;42455;51.660;5.824;2023-06-05T06:44:53;16.5;80.0
45383;DHT22;42455;51.660;5.824;2023-06-05T06:49:59;16.7;79.5
45383;DHT22;42455;51.660;5.824;2023-06-05T06:55:05;17.0;79.5
45383;DHT22;42455;51.660;5.824;2023-06-05T07:00:12;17.2;79.0
45383;DHT22;42455;51.660;5.824;2023-06-05T07:05:17;17.5;78.0
45383;DHT22;42455;51.660;5.824;2023-06-05T07:10:24;17.6;78.0
45383;DHT22;42455;51.660;5.824;2023-06-05T07:15:30;17.8;77.5
45383;DHT22;42455;51.660;5.824;2023-06-05T07:20:36;17.9;77.0
45383;DHT22;42455;51.660;5.824;2023-06-05T07:25:42;18.2;77.0
45383;DHT22;42455;51.660;5.824;2023-06-05T07:30:48;18.3;76.5
45383;DHT22;42455;51.660;5.824;2023-06-05T07:35:55;18.5;76.0
45383;DHT22;42455;51.660;5.824;2023-06-05T07:41:01;18.7;75.5
45383;DHT22;42455;51.660;5.824;2023-06-05T07:46:07;18.9;75.5
45383;DHT22;42455;51.660;5.824;2023-06-05T07:51:13;19.1;75.0
45383;DHT22;42455;51.660;5.824;2023-06-05T07:56:20;19.2;74.5
45383;DHT22;42455;51.660;5.824;2023-06-05T08:01:27;19.4;74.0
45383;DHT22;42455;51.660;5.824;2023-06-05T08:06:32;19.5;73.5
45383;DHT22;42455;51.660;5.824;2023-06-05T08:11:38;19.5;73.0
45383;DHT22;42455;51.660;5.824;2023-06-05T08:16:44;19.6;73.5
45383;DHT22;42455;51.660;5.824;2023-06-05T08:21:52;19.7;73.0
45383;DHT22;42455;51.660;5.824;2023-06-05T08:26:57;19.9;73.0
45383;DHT22;42455;51.660;5.824;2023-06-05T08:32:03;20.1;72.5
45383;DHT22;42455;51.660;5.824;2023-06-05T08:37:09;20.2;72.5
45383;DHT22;42455;51.660;5.824;2023-06-05T08:42:15;20.4;72.0
45383;DHT22;42455;51.660;5.824;2023-06-05T08:47:22;20.6;72.0
45383;DHT22;42455;51.660;5.824;2023-06-05T08:52:28;20.8;71.5
45383;DHT22;42455;51.660;5.824;2023-06-05T08:57:34;20.9;71.5
45383;DHT22;42455;51.660;5.824;2023-06-05T09:02:41;21.1;71.5
45383;DHT22;42455;51.660;5.824;2023-06-05T09:07:46;21.3;70.5
45383;DHT22;42455;51.660;5.824;2023-06-05T09:12:55;21.5;70.0
45383;DHT22;42455;51.660;5.824;2023-06-05T09:18:04;21.7;70.0
45383;DHT22;42455;51.660;5.824;2023-06-05T09:23:22;21.9;69.5
45383;DHT22;42455;51.660;5.824;2023-06-05T09:28:11;22.1;69.0
45383;DHT22;42455;51.660;5.824;2023-06-05T09:33:17;22.3;69.0
45383;DHT22;42455;51.660;5.824;2023-06-05T09:38:26;22.4;68.5
45383;DHT22;42455;51.660;5.824;2023-06-05T09:43:30;22.6;68.0
45383;DHT22;42455;51.660;5.824;2023-06-05T09:48:36;22.7;68.0
45383;DHT22;42455;51.660;5.824;2023-06-05T09:53:44;22.9;67.5
45383;DHT22;42455;51.660;5.824;2023-06-05T09:58:50;23.1;67.5
45383;DHT22;42455;51.660;5.824;2023-06-05T10:03:57;23.2;67.0
45383;DHT22;42455;51.660;5.824;2023-06-05T10:09:01;23.4;66.5
45383;DHT22;42455;51.660;5.824;2023-06-05T10:14:08;23.6;66.0
45383;DHT22;42455;51.660;5.824;2023-06-05T10:19:13;23.7;65.5
45383;DHT22;42455;51.660;5.824;2023-06-05T10:24:25;23.8;64.5
45383;DHT22;42455;51.660;5.824;2023-06-05T10:31:13;23.9;64.5
45383;DHT22;42455;51.660;5.824;2023-06-05T10:35:51;23.9;64.5
45383;DHT22;42455;51.660;5.824;2023-06-05T10:39:38;24.0;64.0
45383;DHT22;42455;51.660;5.824;2023-06-05T10:44:44;24.1;63.5
45383;DHT22;42455;51.660;5.824;2023-06-05T10:50:23;24.3;63.5
45383;DHT22;42455;51.660;5.824;2023-06-05T10:54:58;24.4;63.0
45383;DHT22;42455;51.660;5.824;2023-06-05T11:00:06;24.5;62.5
45383;DHT22;42455;51.660;5.824;2023-06-05T11:05:09;24.6;62.0
45383;DHT22;42455;51.660;5.824;2023-06-05T11:10:16;24.7;62.5
45383;DHT22;42455;51.660;5.824;2023-06-05T11:15:35;24.9;61.5
45383;DHT22;42455;51.660;5.824;2023-06-05T11:20:49;25.0;61.5
45383;DHT22;42455;51.660;5.824;2023-06-05T11:25:32;25.1;60.5
45383;DHT22;42455;51.660;5.824;2023-06-05T11:30:40;25.2;60.5
45383;DHT22;42455;51.660;5.824;2023-06-05T11:35:45;25.3;60.0
45383;DHT22;42455;51.660;5.824;2023-06-05T11:40:51;25.4;60.0
45383;DHT22;42455;51.660;5.824;2023-06-05T11:45:58;25.5;59.5
45383;DHT22;42455;51.660;5.824;2023-06-05T11:51:04;25.5;59.0
45383;DHT22;42455;51.660;5.824;2023-06-05T11:56:15;25.6;58.5
45383;DHT22;42455;51.660;5.824;2023-06-05T12:01:17;25.8;58.5
45383;DHT22;42455;51.660;5.824;2023-06-05T12:06:22;25.9;58.0
45383;DHT22;42455;51.660;5.824;2023-06-05T12:11:28;26.0;57.5
45383;DHT22;42455;51.660;5.824;2023-06-05T12:16:35;26.1;57.0
45383;DHT22;42455;51.660;5.824;2023-06-05T12:21:41;26.2;56.5
45383;DHT22;42455;51.660;5.824;2023-06-05T12:26:48;26.2;56.0
45383;DHT22;42455;51.660;5.824;2023-06-05T12:31:53;26.3;56.5
45383;DHT22;42455;51.660;5.824;2023-06-05T12:36:59;26.3;55.5
45383;DHT22;42455;51.660;5.824;2023-06-05T12:42:05;26.3;55.5
45383;DHT22;42455;51.660;5.824;2023-06-05T12:47:11;26.5;56.5
45383;DHT22;42455;51.660;5.824;2023-06-05T12:52:18;0.0;0.0
45383;DHT22;42455;51.660;5.824;2023-06-05T12:57:25;26.7;55.0
45383;DHT22;42455;51.660;5.824;2023-06-05T13:02:30;26.8;54.5
45383;DHT22;42455;51.660;5.824;2023-06-05T13:07:37;26.8;54.0
45383;DHT22;42455;51.660;5.824;2023-06-05T13:12:43;26.9;54.0
45383;DHT22;42455;51.660;5.824;2023-06-05T13:17:49;27.0;53.5
45383;DHT22;42455;51.660;5.824;2023-06-05T13:22:55;27.1;52.5
45383;DHT22;42455;51.660;5.824;2023-06-05T13:28:01;27.1;52.0
45383;DHT22;42455;51.660;5.824;2023-06-05T13:33:08;27.2;52.0
45383;DHT22;42455;51.660;5.824;2023-06-05T13:38:14;27.2;52.0
45383;DHT22;42455;51.660;5.824;2023-06-05T13:43:21;27.4;51.5
45383;DHT22;42455;51.660;5.824;2023-06-05T13:48:26;27.5;51.5
45383;DHT22;42455;51.660;5.824;2023-06-05T13:53:33;27.6;51.0
45383;DHT22;42455;51.660;5.824;2023-06-05T13:58:39;27.7;51.0
45383;DHT22;42455;51.660;5.824;2023-06-05T14:03:45;27.8;51.0
45383;DHT22;42455;51.660;5.824;2023-06-05T14:08:51;27.8;51.0
45383;DHT22;42455;51.660;5.824;2023-06-05T14:13:57;27.9;50.5
45383;DHT22;42455;51.660;5.824;2023-06-05T14:19:04;27.9;50.0
45383;DHT22;42455;51.660;5.824;2023-06-05T14:24:10;28.0;49.5
45383;DHT22;42455;51.660;5.824;2023-06-05T14:29:16;28.1;49.0
45383;DHT22;42455;51.660;5.824;2023-06-05T14:34:22;28.2;49.5
45383;DHT22;42455;51.660;5.824;2023-06-05T14:39:29;28.2;49.5
45383;DHT22;42455;51.660;5.824;2023-06-05T14:44:35;28.2;49.0
45383;DHT22;42455;51.660;5.824;2023-06-05T14:49:41;28.2;49.0
45383;DHT22;42455;51.660;5.824;2023-06-05T14:54:47;28.2;49.0
45383;DHT22;42455;51.660;5.824;2023-06-05T14:59:54;28.3;49.0
45383;DHT22;42455;51.660;5.824;2023-06-05T15:05:00;28.4;49.0
45383;DHT22;42455;51.660;5.824;2023-06-05T15:10:07;28.4;49.5
45383;DHT22;42455;51.660;5.824;2023-06-05T15:15:12;28.4;49.5
45383;DHT22;42455;51.660;5.824;2023-06-05T15:20:18;28.4;49.5
45383;DHT22;42455;51.660;5.824;2023-06-05T15:25:25;28.3;49.0
45383;DHT22;42455;51.660;5.824;2023-06-05T15:30:31;28.2;49.0
45383;DHT22;42455;51.660;5.824;2023-06-05T15:35:37;28.2;49.0
45383;DHT22;42455;51.660;5.824;2023-06-05T15:40:43;28.2;49.0
45383;DHT22;42455;51.660;5.824;2023-06-05T15:45:49;28.1;49.0
45383;DHT22;42455;51.660;5.824;2023-06-05T15:50:56;28.1;49.5
45383;DHT22;42455;51.660;5.824;2023-06-05T15:56:02;28.0;49.5
45383;DHT22;42455;51.660;5.824;2023-06-05T16:01:08;28.1;49.5
45383;DHT22;42455;51.660;5.824;2023-06-05T16:06:14;28.2;49.5
45383;DHT22;42455;51.660;5.824;2023-06-05T16:11:21;28.3;49.0
45383;DHT22;42455;51.660;5.824;2023-06-05T16:16:27;28.3;49.0
45383;DHT22;42455;51.660;5.824;2023-06-05T16:21:33;28.2;49.0
45383;DHT22;42455;51.660;5.824;2023-06-05T16:26:39;28.2;49.0
45383;DHT22;42455;51.660;5.824;2023-06-05T16:31:45;28.2;49.0
45383;DHT22;42455;51.660;5.824;2023-06-05T16:36:52;28.2;48.5
45383;DHT22;42455;51.660;5.824;2023-06-05T16:41:58;28.2;49.0
45383;DHT22;42455;51.660;5.824;2023-06-05T16:47:04;28.3;48.5
45383;DHT22;42455;51.660;5.824;2023-06-05T16:52:09;28.4;49.0
45383;DHT22;42455;51.660;5.824;2023-06-05T16:57:16;28.4;48.5
45383;DHT22;42455;51.660;5.824;2023-06-05T17:02:22;28.4;48.0
45383;DHT22;42455;51.660;5.824;2023-06-05T17:07:28;28.3;48.5
45383;DHT22;42455;51.660;5.824;2023-06-05T17:12:34;28.3;48.5
45383;DHT22;42455;51.660;5.824;2023-06-05T17:17:40;28.3;48.0
45383;DHT22;42455;51.660;5.824;2023-06-05T17:22:47;28.3;48.0
45383;DHT22;42455;51.660;5.824;2023-06-05T17:27:53;28.2;48.0
45383;DHT22;42455;51.660;5.824;2023-06-05T17:32:59;28.2;48.0
45383;DHT22;42455;51.660;5.824;2023-06-05T17:38:05;28.1;47.5
45383;DHT22;42455;51.660;5.824;2023-06-05T17:43:11;28.0;48.0
45383;DHT22;42455;51.660;5.824;2023-06-05T17:48:18;27.8;48.0
45383;DHT22;42455;51.660;5.824;2023-06-05T17:53:24;27.6;47.5
45383;DHT22;42455;51.660;5.824;2023-06-05T17:58:30;27.4;48.0
45383;DHT22;42455;51.660;5.824;2023-06-05T18:03:36;27.2;48.5
45383;DHT22;42455;51.660;5.824;2023-06-05T18:08:43;27.1;49.0
45383;DHT22;42455;51.660;5.824;2023-06-05T18:13:49;26.9;49.0
45383;DHT22;42455;51.660;5.824;2023-06-05T18:18:55;26.9;49.0
45383;DHT22;42455;51.660;5.824;2023-06-05T18:24:01;26.8;49.0
45383;DHT22;42455;51.660;5.824;2023-06-05T18:29:08;0.0;0.0
45383;DHT22;42455;51.660;5.824;2023-06-05T18:34:14;26.5;50.0
45383;DHT22;42455;51.660;5.824;2023-06-05T18:39:20;26.3;50.5
45383;DHT22;42455;51.660;5.824;2023-06-05T18:44:26;26.1;51.0
45383;DHT22;42455;51.660;5.824;2023-06-05T18:49:33;25.7;53.0
45383;DHT22;42455;51.660;5.824;2023-06-05T18:54:39;25.3;54.5
45383;DHT22;42455;51.660;5.824;2023-06-05T18:59:45;24.9;55.5
45383;DHT22;42455;51.660;5.824;2023-06-05T19:04:51;24.5;56.5
45383;DHT22;42455;51.660;5.824;2023-06-05T19:09:57;24.2;57.5
45383;DHT22;42455;51.660;5.824;2023-06-05T19:15:04;23.9;58.5
45383;DHT22;42455;51.660;5.824;2023-06-05T19:20:10;23.5;59.0
45383;DHT22;42455;51.660;5.824;2023-06-05T19:25:16;23.2;60.0
45383;DHT22;42455;51.660;5.824;2023-06-05T19:30:22;22.9;61.0
45383;DHT22;42455;51.660;5.824;2023-06-05T19:35:28;22.6;62.0
45383;DHT22;42455;51.660;5.824;2023-06-05T19:40:35;22.3;63.0
45383;DHT22;42455;51.660;5.824;2023-06-05T19:45:41;21.9;64.0
45383;DHT22;42455;51.660;5.824;2023-06-05T19:50:47;21.6;65.0
45383;DHT22;42455;51.660;5.824;2023-06-05T19:55:53;21.4;66.0
45383;DHT22;42455;51.660;5.824;2023-06-05T20:00:59;21.2;66.5
45383;DHT22;42455;51.660;5.824;2023-06-05T20:06:06;21.1;66.5
45383;DHT22;42455;51.660;5.824;2023-06-05T20:11:13;20.9;67.0
45383;DHT22;42455;51.660;5.824;2023-06-05T20:16:18;20.9;67.0
45383;DHT22;42455;51.660;5.824;2023-06-05T20:21:24;20.8;67.5
45383;DHT22;42455;51.660;5.824;2023-06-05T20:26:31;20.8;67.5
45383;DHT22;42455;51.660;5.824;2023-06-05T20:31:37;20.7;67.5
45383;DHT22;42455;51.660;5.824;2023-06-05T20:36:43;20.6;68.0
45383;DHT22;42455;51.660;5.824;2023-06-05T20:41:49;20.5;68.0
45383;DHT22;42455;51.660;5.824;2023-06-05T20:46:55;20.5;68.0
45383;DHT22;42455;51.660;5.824;2023-06-05T20:52:01;20.4;68.5
45383;DHT22;42455;51.660;5.824;2023-06-05T20:57:08;20.3;69.0
45383;DHT22;42455;51.660;5.824;2023-06-05T21:02:14;20.2;69.0
45383;DHT22;42455;51.660;5.824;2023-06-05T21:07:20;20.1;69.5
45383;DHT22;42455;51.660;5.824;2023-06-05T21:12:26;20.0;70.0
45383;DHT22;42455;51.660;5.824;2023-06-05T21:17:33;19.8;70.0
45383;DHT22;42455;51.660;5.824;2023-06-05T21:22:39;19.7;70.0
45383;DHT22;42455;51.660;5.824;2023-06-05T21:27:45;19.6;70.5
45383;DHT22;42455;51.660;5.824;2023-06-05T21:32:51;19.5;70.5
45383;DHT22;42455;51.660;5.824;2023-06-05T21:37:57;19.3;71.0
45383;DHT22;42455;51.660;5.824;2023-06-05T21:43:04;19.2;71.0
45383;DHT22;42455;51.660;5.824;2023-06-05T21:48:10;19.1;71.5
45383;DHT22;42455;51.660;5.824;2023-06-05T21:53:16;19.0;71.5
45383;DHT22;42455;51.660;5.824;2023-06-05T21:58:22;18.9;72.0
45383;DHT22;42455;51.660;5.824;2023-06-05T22:03:28;18.8;72.5
45383;DHT22;42455;51.660;5.824;2023-06-05T22:08:35;18.6;72.5
45383;DHT22;42455;51.660;5.824;2023-06-05T22:13:41;18.5;73.0
45383;DHT22;42455;51.660;5.824;2023-06-05T22:18:47;18.4;73.0
45383;DHT22;42455;51.660;5.824;2023-06-05T22:23:52;18.3;73.5
45383;DHT22;42455;51.660;5.824;2023-06-05T22:28:59;18.2;73.5
45383;DHT22;42455;51.660;5.824;2023-06-05T22:34:05;18.1;74.0
45383;DHT22;42455;51.660;5.824;2023-06-05T22:39:11;18.0;74.5
45383;DHT22;42455;51.660;5.824;2023-06-05T22:44:17;17.9;74.5
45383;DHT22;42455;51.660;5.824;2023-06-05T22:49:23;17.8;74.5
45383;DHT22;42455;51.660;5.824;2023-06-05T22:54:30;17.7;75.0
45383;DHT22;42455;51.660;5.824;2023-06-05T22:59:36;17.6;75.0
45383;DHT22;42455;51.660;5.824;2023-06-05T23:04:42;17.4;75.5
45383;DHT22;42455;51.660;5.824;2023-06-05T23:09:48;17.4;75.5
45383;DHT22;42455;51.660;5.824;2023-06-05T23:14:54;17.3;76.0
45383;DHT22;42455;51.660;5.824;2023-06-05T23:20:01;17.2;76.0
45383;DHT22;42455;51.660;5.824;2023-06-05T23:25:07;17.1;76.5
45383;DHT22;42455;51.660;5.824;2023-06-05T23:30:13;17.0;76.5
45383;DHT22;42455;51.660;5.824;2023-06-05T23:35:19;16.9;77.0
45383;DHT22;42455;51.660;5.824;2023-06-05T23:40:25;16.8;77.0
45383;DHT22;42455;51.660;5.824;2023-06-05T23:45:32;16.7;77.0
45383;DHT22;42455;51.660;5.824;2023-06-05T23:50:38;16.6;77.5
45383;DHT22;42455;51.660;5.824;2023-06-05T23:55:44;16.6;77.5
